sensor_id;sensor_type;location;lat;lon;timestamp;temperature;humidity
66119;DHT22;52912;48.564;9.302;2023-04-01T00:01:39;8.82;85.14
66119;DHT22;52912;48.564;9.302;2023-04-01T00:04:04;8.80;84.86
66119;DHT22;52912;48.564;9.302;2023-04-01T00:06:31;8.78;84.32
66119;DHT22;52912;48.564;9.302;2023-04-01T00:08:56;8.84;84.55
66119;DHT22;52912;48.564;9.302;2023-04-01T00:11:22;8.87;84.41
66119;DHT22;52912;48.564;9.302;2023-04-01T00:13:47;8.87;83.37
66119;DHT22;52912;48.564;9.302;2023-04-01T00:16:13;8.93;83.68
66119;DHT22;52912;48.564;9.302;2023-04-01T00:18:39;8.85;83.89
66119;DHT22;52912;48.564;9.302;2023-04-01T00:21:05;8.85;83.25
66119;DHT22;52912;48.564;9.302;2023-04-01T00:23:31;8.91;83.48
66119;DHT22;52912;48.564;9.302;2023-04-01T00:25:59;8.99;83.11
66119;DHT22;52912;48.564;9.302;2023-04-01T00:28:24;8.87;83.03
66119;DHT22;52912;48.564;9.302;2023-04-01T00:30:49;8.87;83.29
66119;DHT22;52912;48.564;9.302;2023-04-01T00:33:15;8.80;83.40
66119;DHT22;52912;48.564;9.302;2023-04-01T00:35:40;8.75;83.71
66119;DHT22;52912;48.564;9.302;2023-04-01T00:38:06;8.73;83.81
66119;DHT22;52912;48.564;9.302;2023-04-01T00:40:35;8.70;83.67
66119;DHT22;52912;48.564;9.302;2023-04-01T00:43:00;8.71;83.87
66119;DHT22;52912;48.564;9.302;2023-04-01T00:45:31;8.67;84.38
66119;DHT22;52912;48.564;9.302;2023-04-01T00:47:58;8.73;83.97
66119;DHT22;52912;48.564;9.302;2023-04-01T00:50:26;8.73;83.97
66119;DHT22;52912;48.564;9.302;2023-04-01T00:52:53;8.73;84.04
66119;DHT22;52912;48.564;9.302;2023-04-01T00:55:20;8.71;84.53
66119;DHT22;52912;48.564;9.302;2023-04-01T00:57:48;8.65;84.50
66119;DHT22;52912;48.564;9.302;2023-04-01T01:00:16;8.70;84.06
66119;DHT22;52912;48.564;9.302;2023-04-01T01:02:44;8.65;84.27
66119;DHT22;52912;48.564;9.302;2023-04-01T01:05:11;8.67;84.15
66119;DHT22;52912;48.564;9.302;2023-04-01T01:07:43;8.60;84.15
66119;DHT22;52912;48.564;9.302;2023-04-01T01:10:16;8.65;83.84
66119;DHT22;52912;48.564;9.302;2023-04-01T01:12:46;8.61;84.13
66119;DHT22;52912;48.564;9.302;2023-04-01T01:15:18;8.63;84.01
66119;DHT22;52912;48.564;9.302;2023-04-01T01:17:52;8.64;84.38
66119;DHT22;52912;48.564;9.302;2023-04-01T01:20:47;8.61;84.03
66119;DHT22;52912;48.564;9.302;2023-04-01T01:23:36;8.63;83.90
66119;DHT22;52912;48.564;9.302;2023-04-01T01:29:01;8.61;83.83
66119;DHT22;52912;48.564;9.302;2023-04-01T01:31:34;8.47;84.24
66119;DHT22;52912;48.564;9.302;2023-04-01T01:34:11;8.50;84.63
66119;DHT22;52912;48.564;9.302;2023-04-01T01:36:42;8.45;84.22
66119;DHT22;52912;48.564;9.302;2023-04-01T01:39:09;8.45;83.98
66119;DHT22;52912;48.564;9.302;2023-04-01T01:41:36;8.52;83.37
66119;DHT22;52912;48.564;9.302;2023-04-01T01:44:07;8.56;83.39
66119;DHT22;52912;48.564;9.302;2023-04-01T01:46:33;8.57;83.43
66119;DHT22;52912;48.564;9.302;2023-04-01T01:49:00;8.54;83.18
66119;DHT22;52912;48.564;9.302;2023-04-01T01:51:27;8.47;83.92
66119;DHT22;52912;48.564;9.302;2023-04-01T01:53:54;8.50;83.61
66119;DHT22;52912;48.564;9.302;2023-04-01T01:56:22;8.50;83.71
66119;DHT22;52912;48.564;9.302;2023-04-01T01:58:52;8.47;83.80
66119;DHT22;52912;48.564;9.302;2023-04-01T02:01:23;8.45;83.29
66119;DHT22;52912;48.564;9.302;2023-04-01T02:03:50;8.50;83.69
66119;DHT22;52912;48.564;9.302;2023-04-01T02:06:18;8.50;83.60
66119;DHT22;52912;48.564;9.302;2023-04-01T02:08:47;8.46;83.42
66119;DHT22;52912;48.564;9.302;2023-04-01T02:11:17;8.42;82.95
66119;DHT22;52912;48.564;9.302;2023-04-01T02:13:47;8.42;83.18
66119;DHT22;52912;48.564;9.302;2023-04-01T02:16:16;8.46;83.12
66119;DHT22;52912;48.564;9.302;2023-04-01T02:18:44;8.43;83.08
66119;DHT22;52912;48.564;9.302;2023-04-01T02:21:11;8.39;82.98
66119;DHT22;52912;48.564;9.302;2023-04-01T02:23:38;8.42;82.90
66119;DHT22;52912;48.564;9.302;2023-04-01T02:26:05;8.35;83.01
66119;DHT22;52912;48.564;9.302;2023-04-01T02:28:34;8.39;83.19
66119;DHT22;52912;48.564;9.302;2023-04-01T02:31:02;8.35;83.59
66119;DHT22;52912;48.564;9.302;2023-04-01T02:33:29;8.30;84.11
66119;DHT22;52912;48.564;9.302;2023-04-01T02:35:55;8.15;84.37
66119;DHT22;52912;48.564;9.302;2023-04-01T02:38:21;8.13;84.82
66119;DHT22;52912;48.564;9.302;2023-04-01T02:40:49;8.16;84.68
66119;DHT22;52912;48.564;9.302;2023-04-01T02:43:14;8.11;84.90
66119;DHT22;52912;48.564;9.302;2023-04-01T02:45:41;8.09;84.87
66119;DHT22;52912;48.564;9.302;2023-04-01T02:48:07;8.09;85.11
66119;DHT22;52912;48.564;9.302;2023-04-01T02:50:32;8.15;84.74
66119;DHT22;52912;48.564;9.302;2023-04-01T02:52:58;8.11;84.84
66119;DHT22;52912;48.564;9.302;2023-04-01T02:55:23;8.16;85.12
66119;DHT22;52912;48.564;9.302;2023-04-01T02:57:49;8.05;84.93
66119;DHT22;52912;48.564;9.302;2023-04-01T03:00:16;8.06;85.30
66119;DHT22;52912;48.564;9.302;2023-04-01T03:02:43;7.91;85.25
66119;DHT22;52912;48.564;9.302;2023-04-01T03:05:08;7.94;85.42
66119;DHT22;52912;48.564;9.302;2023-04-01T03:07:33;7.91;85.40
66119;DHT22;52912;48.564;9.302;2023-04-01T03:09:59;7.83;85.35
66119;DHT22;52912;48.564;9.302;2023-04-01T03:12:24;7.84;85.04
66119;DHT22;52912;48.564;9.302;2023-04-01T03:14:50;7.75;85.31
66119;DHT22;52912;48.564;9.302;2023-04-01T03:17:15;7.71;85.20
66119;DHT22;52912;48.564;9.302;2023-04-01T03:19:42;7.74;85.07
66119;DHT22;52912;48.564;9.302;2023-04-01T03:22:08;7.70;85.11
66119;DHT22;52912;48.564;9.302;2023-04-01T03:24:34;7.62;85.15
66119;DHT22;52912;48.564;9.302;2023-04-01T03:27:00;7.57;85.48
66119;DHT22;52912;48.564;9.302;2023-04-01T03:29:25;7.56;85.34
66119;DHT22;52912;48.564;9.302;2023-04-01T03:31:51;7.52;85.55
66119;DHT22;52912;48.564;9.302;2023-04-01T03:34:16;7.45;85.70
66119;DHT22;52912;48.564;9.302;2023-04-01T03:36:43;7.45;85.70
66119;DHT22;52912;48.564;9.302;2023-04-01T03:39:08;7.42;85.70
66119;DHT22;52912;48.564;9.302;2023-04-01T03:41:35;7.35;85.82
66119;DHT22;52912;48.564;9.302;2023-04-01T03:44:01;7.32;85.64
66119;DHT22;52912;48.564;9.302;2023-04-01T03:46:26;7.30;85.64
66119;DHT22;52912;48.564;9.302;2023-04-01T03:48:52;7.28;85.40
66119;DHT22;52912;48.564;9.302;2023-04-01T03:51:17;7.21;85.60
66119;DHT22;52912;48.564;9.302;2023-04-01T03:53:44;7.28;85.42
66119;DHT22;52912;48.564;9.302;2023-04-01T03:56:10;7.16;85.31
66119;DHT22;52912;48.564;9.302;2023-04-01T03:58:36;7.05;85.39
66119;DHT22;52912;48.564;9.302;2023-04-01T04:01:01;7.16;84.95
66119;DHT22;52912;48.564;9.302;2023-04-01T04:03:27;7.14;85.06
66119;DHT22;52912;48.564;9.302;2023-04-01T04:05:52;7.11;84.91
66119;DHT22;52912;48.564;9.302;2023-04-01T04:08:18;7.15;84.80
66119;DHT22;52912;48.564;9.302;2023-04-01T04:10:45;7.02;85.22
66119;DHT22;52912;48.564;9.302;2023-04-01T04:13:10;7.00;85.17
66119;DHT22;52912;48.564;9.302;2023-04-01T04:15:35;7.05;84.91
66119;DHT22;52912;48.564;9.302;2023-04-01T04:18:01;7.18;84.80
66119;DHT22;52912;48.564;9.302;2023-04-01T04:20:26;7.15;84.74
66119;DHT22;52912;48.564;9.302;2023-04-01T04:22:52;7.16;84.92
66119;DHT22;52912;48.564;9.302;2023-04-01T04:25:17;7.22;85.00
66119;DHT22;52912;48.564;9.302;2023-04-01T04:27:44;7.26;84.97
66119;DHT22;52912;48.564;9.302;2023-04-01T04:30:10;7.28;84.97
66119;DHT22;52912;48.564;9.302;2023-04-01T04:32:36;7.32;85.09
66119;DHT22;52912;48.564;9.302;2023-04-01T04:35:01;7.32;85.08
66119;DHT22;52912;48.564;9.302;2023-04-01T04:37:27;7.43;84.97
66119;DHT22;52912;48.564;9.302;2023-04-01T04:39:52;7.45;84.94
66119;DHT22;52912;48.564;9.302;2023-04-01T04:42:17;7.46;84.89
66119;DHT22;52912;48.564;9.302;2023-04-01T04:44:44;7.56;84.66
66119;DHT22;52912;48.564;9.302;2023-04-01T04:47:10;7.66;84.38
66119;DHT22;52912;48.564;9.302;2023-04-01T04:49:35;7.71;84.36
66119;DHT22;52912;48.564;9.302;2023-04-01T04:52:01;7.73;84.02
66119;DHT22;52912;48.564;9.302;2023-04-01T04:54:26;7.71;84.33
66119;DHT22;52912;48.564;9.302;2023-04-01T04:56:52;7.77;84.10
66119;DHT22;52912;48.564;9.302;2023-04-01T04:59:18;7.84;83.60
66119;DHT22;52912;48.564;9.302;2023-04-01T05:01:44;7.81;83.75
66119;DHT22;52912;48.564;9.302;2023-04-01T05:04:10;7.83;83.66
66119;DHT22;52912;48.564;9.302;2023-04-01T05:06:35;7.83;83.55
66119;DHT22;52912;48.564;9.302;2023-04-01T05:09:01;7.81;83.48
66119;DHT22;52912;48.564;9.302;2023-04-01T05:11:27;7.90;83.56
66119;DHT22;52912;48.564;9.302;2023-04-01T05:13:52;7.88;83.81
66119;DHT22;52912;48.564;9.302;2023-04-01T05:16:19;7.87;83.42
66119;DHT22;52912;48.564;9.302;2023-04-01T05:18:47;7.91;83.50
66119;DHT22;52912;48.564;9.302;2023-04-01T05:21:13;8.02;82.96
66119;DHT22;52912;48.564;9.302;2023-04-01T05:23:39;7.95;83.15
66119;DHT22;52912;48.564;9.302;2023-04-01T05:26:06;7.97;83.12
66119;DHT22;52912;48.564;9.302;2023-04-01T05:28:32;7.95;83.16
66119;DHT22;52912;48.564;9.302;2023-04-01T05:30:59;8.01;83.37
66119;DHT22;52912;48.564;9.302;2023-04-01T05:33:24;7.98;83.34
66119;DHT22;52912;48.564;9.302;2023-04-01T05:35:51;7.99;83.26
66119;DHT22;52912;48.564;9.302;2023-04-01T05:38:16;7.92;82.86
66119;DHT22;52912;48.564;9.302;2023-04-01T05:40:42;7.98;82.85
66119;DHT22;52912;48.564;9.302;2023-04-01T05:43:07;8.01;82.74
66119;DHT22;52912;48.564;9.302;2023-04-01T05:45:33;8.02;82.08
66119;DHT22;52912;48.564;9.302;2023-04-01T05:47:59;8.11;82.05
66119;DHT22;52912;48.564;9.302;2023-04-01T05:50:24;8.21;81.90
66119;DHT22;52912;48.564;9.302;2023-04-01T05:52:51;8.21;81.31
66119;DHT22;52912;48.564;9.302;2023-04-01T05:55:17;8.30;81.13
66119;DHT22;52912;48.564;9.302;2023-04-01T05:57:44;8.37;80.75
66119;DHT22;52912;48.564;9.302;2023-04-01T06:00:11;8.43;80.47
66119;DHT22;52912;48.564;9.302;2023-04-01T06:02:36;8.46;80.33
66119;DHT22;52912;48.564;9.302;2023-04-01T06:05:11;8.52;80.52
66119;DHT22;52912;48.564;9.302;2023-04-01T06:07:37;8.63;79.80
66119;DHT22;52912;48.564;9.302;2023-04-01T06:10:10;8.78;79.38
66119;DHT22;52912;48.564;9.302;2023-04-01T06:12:45;8.88;79.26
66119;DHT22;52912;48.564;9.302;2023-04-01T06:15:20;8.93;79.32
66119;DHT22;52912;48.564;9.302;2023-04-01T06:17:57;9.01;79.30
66119;DHT22;52912;48.564;9.302;2023-04-01T06:20:29;9.14;78.84
66119;DHT22;52912;48.564;9.302;2023-04-01T06:23:21;9.08;78.74
66119;DHT22;52912;48.564;9.302;2023-04-01T06:25:56;8.99;79.16
66119;DHT22;52912;48.564;9.302;2023-04-01T06:29:00;9.16;79.20
66119;DHT22;52912;48.564;9.302;2023-04-01T06:31:39;9.14;79.03
66119;DHT22;52912;48.564;9.302;2023-04-01T06:34:26;9.12;79.14
66119;DHT22;52912;48.564;9.302;2023-04-01T06:37:07;9.12;78.68
66119;DHT22;52912;48.564;9.302;2023-04-01T06:39:51;9.16;78.79
66119;DHT22;52912;48.564;9.302;2023-04-01T06:42:42;9.19;78.36
66119;DHT22;52912;48.564;9.302;2023-04-01T06:45:25;9.19;78.53
66119;DHT22;52912;48.564;9.302;2023-04-01T06:48:05;9.19;78.46
66119;DHT22;52912;48.564;9.302;2023-04-01T06:50:39;9.23;78.29
66119;DHT22;52912;48.564;9.302;2023-04-01T06:53:11;9.27;78.61
66119;DHT22;52912;48.564;9.302;2023-04-01T06:55:40;9.27;78.04
66119;DHT22;52912;48.564;9.302;2023-04-01T06:58:18;9.26;77.99
66119;DHT22;52912;48.564;9.302;2023-04-01T07:00:46;9.26;77.74
66119;DHT22;52912;48.564;9.302;2023-04-01T07:03:15;9.27;78.09
66119;DHT22;52912;48.564;9.302;2023-04-01T07:05:42;9.33;77.83
66119;DHT22;52912;48.564;9.302;2023-04-01T07:08:10;9.39;77.69
66119;DHT22;52912;48.564;9.302;2023-04-01T07:10:43;9.37;77.83
66119;DHT22;52912;48.564;9.302;2023-04-01T07:13:15;9.37;77.75
66119;DHT22;52912;48.564;9.302;2023-04-01T07:15:48;9.43;78.14
66119;DHT22;52912;48.564;9.302;2023-04-01T07:18:17;9.47;77.84
66119;DHT22;52912;48.564;9.302;2023-04-01T07:20:44;9.50;77.80
66119;DHT22;52912;48.564;9.302;2023-04-01T07:23:16;9.51;77.70
66119;DHT22;52912;48.564;9.302;2023-04-01T07:25:44;9.51;77.74
66119;DHT22;52912;48.564;9.302;2023-04-01T07:28:14;9.57;77.54
66119;DHT22;52912;48.564;9.302;2023-04-01T07:30:47;9.55;77.71
66119;DHT22;52912;48.564;9.302;2023-04-01T07:33:20;9.63;77.46
66119;DHT22;52912;48.564;9.302;2023-04-01T07:35:54;9.69;77.68
66119;DHT22;52912;48.564;9.302;2023-04-01T07:38:28;9.63;77.39
66119;DHT22;52912;48.564;9.302;2023-04-01T07:41:01;9.67;77.80
66119;DHT22;52912;48.564;9.302;2023-04-01T07:43:44;9.74;77.55
66119;DHT22;52912;48.564;9.302;2023-04-01T07:46:23;9.75;77.76
66119;DHT22;52912;48.564;9.302;2023-04-01T07:48:53;9.80;78.09
66119;DHT22;52912;48.564;9.302;2023-04-01T07:51:22;9.73;77.40
66119;DHT22;52912;48.564;9.302;2023-04-01T07:53:52;9.74;77.58
66119;DHT22;52912;48.564;9.302;2023-04-01T07:56:26;9.77;77.60
66119;DHT22;52912;48.564;9.302;2023-04-01T07:59:01;9.80;77.23
66119;DHT22;52912;48.564;9.302;2023-04-01T08:01:32;9.81;77.32
66119;DHT22;52912;48.564;9.302;2023-04-01T08:04:22;9.81;76.86
66119;DHT22;52912;48.564;9.302;2023-04-01T08:06:52;9.87;77.33
66119;DHT22;52912;48.564;9.302;2023-04-01T08:09:26;9.85;76.32
66119;DHT22;52912;48.564;9.302;2023-04-01T08:12:04;9.81;76.61
66119;DHT22;52912;48.564;9.302;2023-04-01T08:14:40;9.78;76.61
66119;DHT22;52912;48.564;9.302;2023-04-01T08:17:15;9.82;77.00
66119;DHT22;52912;48.564;9.302;2023-04-01T08:19:52;9.78;77.05
66119;DHT22;52912;48.564;9.302;2023-04-01T08:22:25;9.74;76.66
66119;DHT22;52912;48.564;9.302;2023-04-01T08:24:51;9.74;77.03
66119;DHT22;52912;48.564;9.302;2023-04-01T08:27:23;9.75;77.24
66119;DHT22;52912;48.564;9.302;2023-04-01T08:29:57;9.63;77.25
66119;DHT22;52912;48.564;9.302;2023-04-01T08:32:27;9.64;77.89
66119;DHT22;52912;48.564;9.302;2023-04-01T08:35:01;9.63;78.26
66119;DHT22;52912;48.564;9.302;2023-04-01T08:37:32;9.69;78.60
66119;DHT22;52912;48.564;9.302;2023-04-01T08:40:05;9.71;78.48
66119;DHT22;52912;48.564;9.302;2023-04-01T08:42:51;9.67;78.96
66119;DHT22;52912;48.564;9.302;2023-04-01T08:45:38;9.54;78.36
66119;DHT22;52912;48.564;9.302;2023-04-01T08:48:34;9.58;78.23
66119;DHT22;52912;48.564;9.302;2023-04-01T08:51:19;9.61;78.38
66119;DHT22;52912;48.564;9.302;2023-04-01T08:56:57;9.43;79.71
66119;DHT22;52912;48.564;9.302;2023-04-01T08:59:35;9.47;80.35
66119;DHT22;52912;48.564;9.302;2023-04-01T09:02:36;9.42;79.47
66119;DHT22;52912;48.564;9.302;2023-04-01T09:05:12;9.48;79.82
66119;DHT22;52912;48.564;9.302;2023-04-01T09:07:47;9.36;79.55
66119;DHT22;52912;48.564;9.302;2023-04-01T09:10:35;9.37;80.68
66119;DHT22;52912;48.564;9.302;2023-04-01T09:13:24;9.25;80.35
66119;DHT22;52912;48.564;9.302;2023-04-01T09:16:02;9.29;81.01
66119;DHT22;52912;48.564;9.302;2023-04-01T09:21:46;9.29;82.53
66119;DHT22;52912;48.564;9.302;2023-04-01T09:24:35;9.32;81.98
66119;DHT22;52912;48.564;9.302;2023-04-01T09:27:13;9.46;82.87
66119;DHT22;52912;48.564;9.302;2023-04-01T09:35:39;9.60;81.10
66119;DHT22;52912;48.564;9.302;2023-04-01T09:38:20;9.71;81.21
66119;DHT22;52912;48.564;9.302;2023-04-01T09:40:53;9.74;81.53
66119;DHT22;52912;48.564;9.302;2023-04-01T09:43:28;9.69;81.82
66119;DHT22;52912;48.564;9.302;2023-04-01T09:46:14;9.65;81.81
66119;DHT22;52912;48.564;9.302;2023-04-01T09:48:51;9.53;82.23
66119;DHT22;52912;48.564;9.302;2023-04-01T09:51:32;9.60;82.83
66119;DHT22;52912;48.564;9.302;2023-04-01T09:54:15;9.33;83.13
66119;DHT22;52912;48.564;9.302;2023-04-01T09:57:12;9.42;84.12
66119;DHT22;52912;48.564;9.302;2023-04-01T10:00:10;9.22;84.08
66119;DHT22;52912;48.564;9.302;2023-04-01T10:03:08;9.23;84.20
66119;DHT22;52912;48.564;9.302;2023-04-01T10:06:23;9.27;84.37
66119;DHT22;52912;48.564;9.302;2023-04-01T10:18:17;9.48;84.29
66119;DHT22;52912;48.564;9.302;2023-04-01T10:21:07;9.40;85.28
66119;DHT22;52912;48.564;9.302;2023-04-01T10:24:09;9.18;85.73
66119;DHT22;52912;48.564;9.302;2023-04-01T10:26:58;9.14;86.08
66119;DHT22;52912;48.564;9.302;2023-04-01T10:33:19;8.99;86.45
66119;DHT22;52912;48.564;9.302;2023-04-01T10:36:15;8.89;86.74
66119;DHT22;52912;48.564;9.302;2023-04-01T10:39:08;8.89;87.03
66119;DHT22;52912;48.564;9.302;2023-04-01T10:45:10;8.93;87.10
66119;DHT22;52912;48.564;9.302;2023-04-01T10:48:07;9.05;87.59
66119;DHT22;52912;48.564;9.302;2023-04-01T10:50:50;8.99;85.84
66119;DHT22;52912;48.564;9.302;2023-04-01T10:53:43;8.99;86.75
66119;DHT22;52912;48.564;9.302;2023-04-01T10:56:42;9.20;86.69
66119;DHT22;52912;48.564;9.302;2023-04-01T10:59:42;9.23;85.36
66119;DHT22;52912;48.564;9.302;2023-04-01T11:08:53;9.46;84.44
66119;DHT22;52912;48.564;9.302;2023-04-01T11:12:09;9.70;84.74
66119;DHT22;52912;48.564;9.302;2023-04-01T11:15:15;9.55;85.40
66119;DHT22;52912;48.564;9.302;2023-04-01T11:27:18;9.47;84.31
66119;DHT22;52912;48.564;9.302;2023-04-01T11:30:01;9.64;85.17
66119;DHT22;52912;48.564;9.302;2023-04-01T11:32:34;9.75;84.99
66119;DHT22;52912;48.564;9.302;2023-04-01T11:35:25;9.64;84.85
66119;DHT22;52912;48.564;9.302;2023-04-01T11:38:00;9.64;84.87
66119;DHT22;52912;48.564;9.302;2023-04-01T11:40:33;9.71;85.67
66119;DHT22;52912;48.564;9.302;2023-04-01T11:43:10;9.58;85.67
66119;DHT22;52912;48.564;9.302;2023-04-01T11:45:40;9.51;86.51
66119;DHT22;52912;48.564;9.302;2023-04-01T11:51:33;9.16;86.27
66119;DHT22;52912;48.564;9.302;2023-04-01T11:54:14;9.37;86.63
66119;DHT22;52912;48.564;9.302;2023-04-01T11:56:58;9.53;84.73
66119;DHT22;52912;48.564;9.302;2023-04-01T11:59:55;9.77;85.41
66119;DHT22;52912;48.564;9.302;2023-04-01T12:02:29;9.78;84.38
66119;DHT22;52912;48.564;9.302;2023-04-01T12:05:18;9.98;84.97
66119;DHT22;52912;48.564;9.302;2023-04-01T12:08:06;10.09;83.09
66119;DHT22;52912;48.564;9.302;2023-04-01T12:10:38;10.12;83.35
66119;DHT22;52912;48.564;9.302;2023-04-01T12:13:12;10.30;82.84
66119;DHT22;52912;48.564;9.302;2023-04-01T12:15:56;10.30;83.05
66119;DHT22;52912;48.564;9.302;2023-04-01T12:18:31;10.13;82.93
66119;DHT22;52912;48.564;9.302;2023-04-01T12:21:06;10.13;83.47
66119;DHT22;52912;48.564;9.302;2023-04-01T12:23:48;10.09;83.62
66119;DHT22;52912;48.564;9.302;2023-04-01T12:26:40;10.06;83.85
66119;DHT22;52912;48.564;9.302;2023-04-01T12:32:25;10.19;84.82
66119;DHT22;52912;48.564;9.302;2023-04-01T12:35:12;10.26;83.94
66119;DHT22;52912;48.564;9.302;2023-04-01T12:37:48;10.29;83.18
66119;DHT22;52912;48.564;9.302;2023-04-01T12:40:44;10.40;83.85
66119;DHT22;52912;48.564;9.302;2023-04-01T12:46:16;10.64;84.09
66119;DHT22;52912;48.564;9.302;2023-04-01T12:49:11;10.65;83.76
66119;DHT22;52912;48.564;9.302;2023-04-01T12:51:50;10.54;82.86
66119;DHT22;52912;48.564;9.302;2023-04-01T12:57:25;10.56;83.07
66119;DHT22;52912;48.564;9.302;2023-04-01T13:00:03;10.53;81.70
66119;DHT22;52912;48.564;9.302;2023-04-01T13:02:40;10.36;81.95
66119;DHT22;52912;48.564;9.302;2023-04-01T13:05:23;10.40;81.71
66119;DHT22;52912;48.564;9.302;2023-04-01T13:08:00;10.49;81.49
66119;DHT22;52912;48.564;9.302;2023-04-01T13:10:38;10.65;80.66
66119;DHT22;52912;48.564;9.302;2023-04-01T13:13:33;10.64;79.61
66119;DHT22;52912;48.564;9.302;2023-04-01T13:16:04;10.61;79.11
66119;DHT22;52912;48.564;9.302;2023-04-01T13:18:43;10.75;78.94
66119;DHT22;52912;48.564;9.302;2023-04-01T13:21:20;10.89;79.55
66119;DHT22;52912;48.564;9.302;2023-04-01T13:23:55;10.94;79.71
66119;DHT22;52912;48.564;9.302;2023-04-01T13:26:29;10.88;79.79
66119;DHT22;52912;48.564;9.302;2023-04-01T13:29:04;10.91;79.33
66119;DHT22;52912;48.564;9.302;2023-04-01T13:31:42;11.01;78.50
66119;DHT22;52912;48.564;9.302;2023-04-01T13:34:25;11.15;77.37
66119;DHT22;52912;48.564;9.302;2023-04-01T13:37:02;11.02;77.89
66119;DHT22;52912;48.564;9.302;2023-04-01T13:39:49;10.91;77.82
66119;DHT22;52912;48.564;9.302;2023-04-01T13:42:21;10.91;78.28
66119;DHT22;52912;48.564;9.302;2023-04-01T13:44:53;10.92;78.58
66119;DHT22;52912;48.564;9.302;2023-04-01T13:47:45;11.12;78.59
66119;DHT22;52912;48.564;9.302;2023-04-01T13:50:37;11.08;78.25
66119;DHT22;52912;48.564;9.302;2023-04-01T13:53:25;10.91;77.16
66119;DHT22;52912;48.564;9.302;2023-04-01T13:56:08;10.81;77.40
66119;DHT22;52912;48.564;9.302;2023-04-01T13:58:59;10.77;77.26
66119;DHT22;52912;48.564;9.302;2023-04-01T14:01:35;10.78;77.74
66119;DHT22;52912;48.564;9.302;2023-04-01T14:04:47;10.72;77.56
66119;DHT22;52912;48.564;9.302;2023-04-01T14:07:35;10.71;77.42
66119;DHT22;52912;48.564;9.302;2023-04-01T14:10:13;10.84;77.60
66119;DHT22;52912;48.564;9.302;2023-04-01T14:12:48;10.80;78.22
66119;DHT22;52912;48.564;9.302;2023-04-01T14:15:41;10.81;78.46
66119;DHT22;52912;48.564;9.302;2023-04-01T14:18:22;10.85;77.38
66119;DHT22;52912;48.564;9.302;2023-04-01T14:21:07;10.78;77.91
66119;DHT22;52912;48.564;9.302;2023-04-01T14:23:51;10.70;76.62
66119;DHT22;52912;48.564;9.302;2023-04-01T14:26:39;10.70;77.23
66119;DHT22;52912;48.564;9.302;2023-04-01T14:29:16;10.68;77.92
66119;DHT22;52912;48.564;9.302;2023-04-01T14:31:58;10.61;77.57
66119;DHT22;52912;48.564;9.302;2023-04-01T14:34:27;10.70;77.58
66119;DHT22;52912;48.564;9.302;2023-04-01T14:37:07;10.70;77.23
66119;DHT22;52912;48.564;9.302;2023-04-01T14:39:51;10.82;77.36
66119;DHT22;52912;48.564;9.302;2023-04-01T14:45:46;10.88;77.09
66119;DHT22;52912;48.564;9.302;2023-04-01T14:48:25;10.99;77.64
66119;DHT22;52912;48.564;9.302;2023-04-01T14:50:54;11.05;77.27
66119;DHT22;52912;48.564;9.302;2023-04-01T14:53:27;11.06;76.67
66119;DHT22;52912;48.564;9.302;2023-04-01T14:55:55;11.04;76.36
66119;DHT22;52912;48.564;9.302;2023-04-01T14:58:22;10.88;76.35
66119;DHT22;52912;48.564;9.302;2023-04-01T15:00:59;10.95;76.73
66119;DHT22;52912;48.564;9.302;2023-04-01T15:03:29;10.89;76.44
66119;DHT22;52912;48.564;9.302;2023-04-01T15:06:09;10.98;76.99
66119;DHT22;52912;48.564;9.302;2023-04-01T15:08:43;10.89;76.85
66119;DHT22;52912;48.564;9.302;2023-04-01T15:11:32;10.77;76.90
66119;DHT22;52912;48.564;9.302;2023-04-01T15:14:35;10.87;77.30
66119;DHT22;52912;48.564;9.302;2023-04-01T15:17:19;10.92;77.64
66119;DHT22;52912;48.564;9.302;2023-04-01T15:22:35;11.01;77.13
66119;DHT22;52912;48.564;9.302;2023-04-01T15:25:27;10.99;77.17
66119;DHT22;52912;48.564;9.302;2023-04-01T15:27:59;10.92;77.46
66119;DHT22;52912;48.564;9.302;2023-04-01T15:30:33;11.06;77.76
66119;DHT22;52912;48.564;9.302;2023-04-01T15:33:17;10.87;77.78
66119;DHT22;52912;48.564;9.302;2023-04-01T15:35:51;10.98;78.07
66119;DHT22;52912;48.564;9.302;2023-04-01T15:38:30;10.89;77.69
66119;DHT22;52912;48.564;9.302;2023-04-01T15:41:03;10.91;77.60
66119;DHT22;52912;48.564;9.302;2023-04-01T15:43:40;10.88;78.09
66119;DHT22;52912;48.564;9.302;2023-04-01T15:46:21;10.87;77.77
66119;DHT22;52912;48.564;9.302;2023-04-01T15:49:02;10.94;78.34
66119;DHT22;52912;48.564;9.302;2023-04-01T15:51:44;10.77;77.74
66119;DHT22;52912;48.564;9.302;2023-04-01T15:54:32;10.70;77.80
66119;DHT22;52912;48.564;9.302;2023-04-01T15:57:12;10.72;78.14
66119;DHT22;52912;48.564;9.302;2023-04-01T16:02:35;10.67;78.33
66119;DHT22;52912;48.564;9.302;2023-04-01T16:05:09;10.63;78.21
66119;DHT22;52912;48.564;9.302;2023-04-01T16:10:45;10.56;77.64
66119;DHT22;52912;48.564;9.302;2023-04-01T16:13:24;10.59;77.62
66119;DHT22;52912;48.564;9.302;2023-04-01T16:15:59;10.57;77.61
66119;DHT22;52912;48.564;9.302;2023-04-01T16:18:36;10.56;77.33
66119;DHT22;52912;48.564;9.302;2023-04-01T16:21:10;10.52;77.23
66119;DHT22;52912;48.564;9.302;2023-04-01T16:23:39;10.47;76.97
66119;DHT22;52912;48.564;9.302;2023-04-01T16:26:08;10.50;77.18
66119;DHT22;52912;48.564;9.302;2023-04-01T16:28:44;10.52;77.23
66119;DHT22;52912;48.564;9.302;2023-04-01T16:31:16;10.52;77.18
66119;DHT22;52912;48.564;9.302;2023-04-01T16:33:52;10.42;77.38
66119;DHT22;52912;48.564;9.302;2023-04-01T16:36:27;10.39;76.99
66119;DHT22;52912;48.564;9.302;2023-04-01T16:39:11;10.37;77.24
66119;DHT22;52912;48.564;9.302;2023-04-01T16:41:47;10.35;77.55
66119;DHT22;52912;48.564;9.302;2023-04-01T16:44:22;10.37;77.34
66119;DHT22;52912;48.564;9.302;2023-04-01T16:46:50;10.43;77.33
66119;DHT22;52912;48.564;9.302;2023-04-01T16:49:25;10.44;76.98
66119;DHT22;52912;48.564;9.302;2023-04-01T16:52:00;10.33;77.16
66119;DHT22;52912;48.564;9.302;2023-04-01T16:54:31;10.26;77.87
66119;DHT22;52912;48.564;9.302;2023-04-01T16:57:17;10.43;77.07
66119;DHT22;52912;48.564;9.302;2023-04-01T16:59:47;10.37;77.32
66119;DHT22;52912;48.564;9.302;2023-04-01T17:02:14;10.29;77.82
66119;DHT22;52912;48.564;9.302;2023-04-01T17:04:44;10.32;77.60
66119;DHT22;52912;48.564;9.302;2023-04-01T17:07:23;10.29;77.74
66119;DHT22;52912;48.564;9.302;2023-04-01T17:10:14;10.36;77.87
66119;DHT22;52912;48.564;9.302;2023-04-01T17:12:50;10.30;77.81
66119;DHT22;52912;48.564;9.302;2023-04-01T17:15:21;10.22;78.23
66119;DHT22;52912;48.564;9.302;2023-04-01T17:17:58;10.28;78.20
66119;DHT22;52912;48.564;9.302;2023-04-01T17:20:39;10.22;78.51
66119;DHT22;52912;48.564;9.302;2023-04-01T17:23:13;10.26;78.66
66119;DHT22;52912;48.564;9.302;2023-04-01T17:25:57;10.28;78.84
66119;DHT22;52912;48.564;9.302;2023-04-01T17:28:34;10.29;78.95
66119;DHT22;52912;48.564;9.302;2023-04-01T17:31:07;10.22;78.94
66119;DHT22;52912;48.564;9.302;2023-04-01T17:33:46;10.17;79.08
66119;DHT22;52912;48.564;9.302;2023-04-01T17:36:25;10.16;78.91
66119;DHT22;52912;48.564;9.302;2023-04-01T17:41:47;10.12;79.28
66119;DHT22;52912;48.564;9.302;2023-04-01T17:44:29;10.13;79.44